KBKL/BKL METAR and TAF weather

Enter ICAO airport designator
Station Type Date Time Source
KBKL METAR 2019/02/20 06:53 UTC NOAA

KBKL 200653Z 06003KT 10SM CLR M02/M08 A3043 RMK AO2 SLP314 T10221078 $


Station Type Date Time Source
KBKL Decoded METAR 2019/02/20 06:53 UTC NOAA

CLEVELAND BURKE LAKEFRONT, OH, United States (KBKL) 41-32N 81-40W 184M
Feb 20, 2019 - 01:53 AM EST / 2019.02.20 0653 UTC
Wind: from the ENE (060 degrees) at 3 MPH (3 KT):0
Visibility: 10 mile(s):0
Sky conditions: clear
Temperature: 28.0 F (-2.2 C)
Dew Point: 18.0 F (-7.8 C)
Relative Humidity: 65%
Pressure (altimeter): 30.43 in. Hg (1030 hPa)
ob: KBKL 200653Z 06003KT 10SM CLR M02/M08 A3043 RMK AO2 SLP314 T10221078
cycle: 7

Station Type Date Time Source
KBKL TAF UTC NOAA

Error!


Example: see airport list